sensor_id;sensor_type;location;lat;lon;timestamp;temperature;humidity
1055;DHT22;516;51.482;7.120;2023-03-12T00:04:03;1.90;94.10
1055;DHT22;516;51.482;7.120;2023-03-12T00:09:51;2.00;93.00
1055;DHT22;516;51.482;7.120;2023-03-12T00:15:39;1.80;94.60
1055;DHT22;516;51.482;7.120;2023-03-12T00:21:26;1.70;96.20
1055;DHT22;516;51.482;7.120;2023-03-12T00:27:14;1.70;99.10
1055;DHT22;516;51.482;7.120;2023-03-12T00:33:02;1.70;99.20
1055;DHT22;516;51.482;7.120;2023-03-12T00:38:50;1.80;98.20
1055;DHT22;516;51.482;7.120;2023-03-12T00:44:38;1.90;96.90
1055;DHT22;516;51.482;7.120;2023-03-12T00:50:26;1.90;95.10
1055;DHT22;516;51.482;7.120;2023-03-12T00:56:13;1.90;93.80
1055;DHT22;516;51.482;7.120;2023-03-12T01:02:02;2.00;91.70
1055;DHT22;516;51.482;7.120;2023-03-12T01:07:50;1.90;91.00
1055;DHT22;516;51.482;7.120;2023-03-12T01:13:37;2.10;87.10
1055;DHT22;516;51.482;7.120;2023-03-12T01:19:25;2.20;79.50
1055;DHT22;516;51.482;7.120;2023-03-12T01:25:12;2.30;73.70
1055;DHT22;516;51.482;7.120;2023-03-12T01:31:09;2.20;69.40
1055;DHT22;516;51.482;7.120;2023-03-12T01:37:32;2.30;66.30
1055;DHT22;516;51.482;7.120;2023-03-12T01:43:29;2.40;62.50
1055;DHT22;516;51.482;7.120;2023-03-12T01:49:26;2.50;59.70
1055;DHT22;516;51.482;7.120;2023-03-12T01:58:39;2.60;56.70
1055;DHT22;516;51.482;7.120;2023-03-12T02:04:28;2.60;55.60
1055;DHT22;516;51.482;7.120;2023-03-12T02:10:17;2.70;53.40
1055;DHT22;516;51.482;7.120;2023-03-12T02:16:05;2.70;53.10
1055;DHT22;516;51.482;7.120;2023-03-12T02:21:53;2.70;52.60
1055;DHT22;516;51.482;7.120;2023-03-12T02:27:42;2.70;52.60
1055;DHT22;516;51.482;7.120;2023-03-12T02:33:30;2.70;53.90
1055;DHT22;516;51.482;7.120;2023-03-12T02:39:18;2.70;54.20
1055;DHT22;516;51.482;7.120;2023-03-12T02:45:06;2.70;54.70
1055;DHT22;516;51.482;7.120;2023-03-12T02:50:54;2.70;55.20
1055;DHT22;516;51.482;7.120;2023-03-12T02:56:25;2.70;55.30
1055;DHT22;516;51.482;7.120;2023-03-12T03:02:13;2.80;55.20
1055;DHT22;516;51.482;7.120;2023-03-12T03:08:02;2.90;52.80
1055;DHT22;516;51.482;7.120;2023-03-12T03:13:50;2.80;52.40
1055;DHT22;516;51.482;7.120;2023-03-12T03:19:38;2.70;53.70
1055;DHT22;516;51.482;7.120;2023-03-12T03:25:26;2.70;53.60
1055;DHT22;516;51.482;7.120;2023-03-12T03:31:14;2.60;55.00
1055;DHT22;516;51.482;7.120;2023-03-12T03:37:02;2.70;53.50
1055;DHT22;516;51.482;7.120;2023-03-12T03:42:50;2.80;53.50
1055;DHT22;516;51.482;7.120;2023-03-12T03:48:38;2.80;54.60
1055;DHT22;516;51.482;7.120;2023-03-12T04:04:23;2.70;56.00
1055;DHT22;516;51.482;7.120;2023-03-12T04:10:11;2.70;57.20
1055;DHT22;516;51.482;7.120;2023-03-12T04:15:59;2.80;58.00
1055;DHT22;516;51.482;7.120;2023-03-12T04:21:47;2.90;56.70
1055;DHT22;516;51.482;7.120;2023-03-12T04:27:35;3.00;54.50
1055;DHT22;516;51.482;7.120;2023-03-12T04:33:22;3.20;53.00
1055;DHT22;516;51.482;7.120;2023-03-12T04:39:10;3.20;52.70
1055;DHT22;516;51.482;7.120;2023-03-12T04:44:58;3.20;51.50
1055;DHT22;516;51.482;7.120;2023-03-12T04:50:45;3.30;50.40
1055;DHT22;516;51.482;7.120;2023-03-12T04:56:26;3.20;51.40
1055;DHT22;516;51.482;7.120;2023-03-12T05:02:14;3.40;49.80
1055;DHT22;516;51.482;7.120;2023-03-12T05:08:03;3.40;48.20
1055;DHT22;516;51.482;7.120;2023-03-12T05:13:51;3.40;47.10
1055;DHT22;516;51.482;7.120;2023-03-12T05:19:38;3.60;46.70
1055;DHT22;516;51.482;7.120;2023-03-12T05:25:26;3.60;45.70
1055;DHT22;516;51.482;7.120;2023-03-12T05:31:15;3.60;45.60
1055;DHT22;516;51.482;7.120;2023-03-12T05:37:02;3.70;45.40
1055;DHT22;516;51.482;7.120;2023-03-12T05:42:52;3.70;45.00
1055;DHT22;516;51.482;7.120;2023-03-12T05:48:39;3.70;46.00
1055;DHT22;516;51.482;7.120;2023-03-12T06:04:20;3.70;48.80
1055;DHT22;516;51.482;7.120;2023-03-12T06:10:09;3.70;50.60
1055;DHT22;516;51.482;7.120;2023-03-12T06:32:39;3.60;77.90
1055;DHT22;516;51.482;7.120;2023-03-12T06:38:27;3.70;81.40
1055;DHT22;516;51.482;7.120;2023-03-12T06:44:14;3.70;88.70
1055;DHT22;516;51.482;7.120;2023-03-12T06:50:01;3.60;94.10
1055;DHT22;516;51.482;7.120;2023-03-12T06:59:10;3.60;99.90
1055;DHT22;516;51.482;7.120;2023-03-12T07:04:58;3.60;99.90
1055;DHT22;516;51.482;7.120;2023-03-12T07:10:46;3.50;99.90
1055;DHT22;516;51.482;7.120;2023-03-12T07:16:34;3.60;99.90
1055;DHT22;516;51.482;7.120;2023-03-12T07:22:21;3.70;99.90
1055;DHT22;516;51.482;7.120;2023-03-12T07:28:10;3.60;99.90
1055;DHT22;516;51.482;7.120;2023-03-12T07:33:58;3.70;99.90
1055;DHT22;516;51.482;7.120;2023-03-12T07:39:46;3.80;99.90
1055;DHT22;516;51.482;7.120;2023-03-12T07:45:38;3.80;99.90
1055;DHT22;516;51.482;7.120;2023-03-12T07:51:26;3.80;99.90
1055;DHT22;516;51.482;7.120;2023-03-12T07:57:16;3.90;99.90
1055;DHT22;516;51.482;7.120;2023-03-12T08:03:05;3.90;99.90
1055;DHT22;516;51.482;7.120;2023-03-12T08:08:52;3.90;99.90
1055;DHT22;516;51.482;7.120;2023-03-12T08:14:40;4.10;99.90
1055;DHT22;516;51.482;7.120;2023-03-12T08:20:28;4.30;99.90
1055;DHT22;516;51.482;7.120;2023-03-12T08:26:16;4.30;99.90
1055;DHT22;516;51.482;7.120;2023-03-12T08:32:04;4.40;99.90
1055;DHT22;516;51.482;7.120;2023-03-12T08:37:52;4.70;99.90
1055;DHT22;516;51.482;7.120;2023-03-12T08:43:39;4.50;99.90
1055;DHT22;516;51.482;7.120;2023-03-12T08:49:27;4.50;99.90
1055;DHT22;516;51.482;7.120;2023-03-12T09:05:09;5.30;99.90
1055;DHT22;516;51.482;7.120;2023-03-12T09:10:57;5.50;99.90
1055;DHT22;516;51.482;7.120;2023-03-12T09:16:45;5.40;99.90
1055;DHT22;516;51.482;7.120;2023-03-12T09:22:36;5.30;99.90
1055;DHT22;516;51.482;7.120;2023-03-12T09:28:24;5.40;99.90
1055;DHT22;516;51.482;7.120;2023-03-12T09:34:12;5.50;99.90
1055;DHT22;516;51.482;7.120;2023-03-12T09:40:00;5.40;99.90
1055;DHT22;516;51.482;7.120;2023-03-12T09:45:49;5.40;99.90
1055;DHT22;516;51.482;7.120;2023-03-12T09:51:41;5.50;99.90
1055;DHT22;516;51.482;7.120;2023-03-12T09:57:15;5.70;99.90
1055;DHT22;516;51.482;7.120;2023-03-12T10:03:18;5.70;99.90
1055;DHT22;516;51.482;7.120;2023-03-12T10:29:21;6.10;99.90
1055;DHT22;516;51.482;7.120;2023-03-12T10:35:22;6.20;99.90
1055;DHT22;516;51.482;7.120;2023-03-12T10:41:46;6.20;99.90
1055;DHT22;516;51.482;7.120;2023-03-12T10:47:41;6.10;99.90
1055;DHT22;516;51.482;7.120;2023-03-12T10:53:34;6.40;99.90
1055;DHT22;516;51.482;7.120;2023-03-12T11:02:44;6.50;99.90
1055;DHT22;516;51.482;7.120;2023-03-12T11:08:35;6.40;99.90
1055;DHT22;516;51.482;7.120;2023-03-12T11:14:25;6.20;99.90
1055;DHT22;516;51.482;7.120;2023-03-12T11:20:23;6.50;99.90
1055;DHT22;516;51.482;7.120;2023-03-12T11:26:21;6.40;99.90
1055;DHT22;516;51.482;7.120;2023-03-12T11:32:37;6.80;99.90
1055;DHT22;516;51.482;7.120;2023-03-12T11:38:23;6.90;99.90
1055;DHT22;516;51.482;7.120;2023-03-12T11:57:06;7.70;99.90
1055;DHT22;516;51.482;7.120;2023-03-12T12:31:42;8.80;99.90
1055;DHT22;516;51.482;7.120;2023-03-12T12:44:03;9.30;99.90
1055;DHT22;516;51.482;7.120;2023-03-12T12:49:55;9.10;99.90
1055;DHT22;516;51.482;7.120;2023-03-12T13:06:09;9.00;99.90
1055;DHT22;516;51.482;7.120;2023-03-12T13:11:57;10.00;99.90
1055;DHT22;516;51.482;7.120;2023-03-12T13:20:45;11.60;99.90
1055;DHT22;516;51.482;7.120;2023-03-12T13:36:24;11.70;99.90
1055;DHT22;516;51.482;7.120;2023-03-12T13:48:15;11.10;99.90
1055;DHT22;516;51.482;7.120;2023-03-12T13:54:03;11.30;99.90
1055;DHT22;516;51.482;7.120;2023-03-12T13:59:51;11.30;99.90
1055;DHT22;516;51.482;7.120;2023-03-12T14:22:18;11.60;99.90
1055;DHT22;516;51.482;7.120;2023-03-12T14:28:22;11.50;99.90
1055;DHT22;516;51.482;7.120;2023-03-12T14:34:17;11.50;99.90
1055;DHT22;516;51.482;7.120;2023-03-12T14:46:45;11.30;99.90
1055;DHT22;516;51.482;7.120;2023-03-12T15:09:42;11.10;99.90
1055;DHT22;516;51.482;7.120;2023-03-12T15:15:39;11.40;99.90
1055;DHT22;516;51.482;7.120;2023-03-12T15:21:46;11.50;99.90
1055;DHT22;516;51.482;7.120;2023-03-12T15:27:34;11.70;99.90
1055;DHT22;516;51.482;7.120;2023-03-12T15:33:22;11.70;99.90
1055;DHT22;516;51.482;7.120;2023-03-12T15:39:30;11.70;99.90
1055;DHT22;516;51.482;7.120;2023-03-12T15:45:24;11.70;99.90
1055;DHT22;516;51.482;7.120;2023-03-12T15:51:14;11.70;99.90
1055;DHT22;516;51.482;7.120;2023-03-12T16:03:37;11.70;99.90
1055;DHT22;516;51.482;7.120;2023-03-12T16:09:25;11.70;99.90
1055;DHT22;516;51.482;7.120;2023-03-12T16:15:20;11.70;99.90
1055;DHT22;516;51.482;7.120;2023-03-12T16:21:09;11.70;99.90
1055;DHT22;516;51.482;7.120;2023-03-12T16:26:58;11.80;99.90
1055;DHT22;516;51.482;7.120;2023-03-12T16:32:46;11.80;99.90
1055;DHT22;516;51.482;7.120;2023-03-12T16:38:33;11.70;99.90
1055;DHT22;516;51.482;7.120;2023-03-12T16:44:21;11.70;99.90
1055;DHT22;516;51.482;7.120;2023-03-12T16:56:54;11.70;99.90
1055;DHT22;516;51.482;7.120;2023-03-12T17:02:41;11.60;99.90
1055;DHT22;516;51.482;7.120;2023-03-12T17:11:53;11.40;99.90
1055;DHT22;516;51.482;7.120;2023-03-12T17:17:40;11.40;99.90
1055;DHT22;516;51.482;7.120;2023-03-12T17:23:27;11.40;99.90
1055;DHT22;516;51.482;7.120;2023-03-12T17:29:15;11.30;99.90
1055;DHT22;516;51.482;7.120;2023-03-12T17:35:02;11.20;99.90
1055;DHT22;516;51.482;7.120;2023-03-12T17:40:37;11.20;99.90
1055;DHT22;516;51.482;7.120;2023-03-12T17:46:25;11.20;99.90
1055;DHT22;516;51.482;7.120;2023-03-12T17:52:12;11.00;99.90
1055;DHT22;516;51.482;7.120;2023-03-12T17:58:00;10.90;99.90
1055;DHT22;516;51.482;7.120;2023-03-12T18:03:49;11.00;99.90
1055;DHT22;516;51.482;7.120;2023-03-12T18:09:37;10.90;99.90
1055;DHT22;516;51.482;7.120;2023-03-12T18:15:25;11.00;99.90
1055;DHT22;516;51.482;7.120;2023-03-12T18:21:13;10.90;99.90
1055;DHT22;516;51.482;7.120;2023-03-12T18:27:00;11.00;99.90
1055;DHT22;516;51.482;7.120;2023-03-12T18:32:48;10.90;99.90
1055;DHT22;516;51.482;7.120;2023-03-12T18:38:36;10.90;99.90
1055;DHT22;516;51.482;7.120;2023-03-12T18:44:24;10.80;99.90
1055;DHT22;516;51.482;7.120;2023-03-12T18:50:12;10.70;99.90
1055;DHT22;516;51.482;7.120;2023-03-12T18:55:59;10.80;99.90
1055;DHT22;516;51.482;7.120;2023-03-12T19:01:47;10.80;99.90
1055;DHT22;516;51.482;7.120;2023-03-12T19:17:44;10.70;99.90
1055;DHT22;516;51.482;7.120;2023-03-12T19:23:32;10.80;99.90
1055;DHT22;516;51.482;7.120;2023-03-12T19:29:20;10.90;99.90
1055;DHT22;516;51.482;7.120;2023-03-12T19:35:09;10.80;99.90
1055;DHT22;516;51.482;7.120;2023-03-12T19:40:57;10.80;99.90
1055;DHT22;516;51.482;7.120;2023-03-12T19:46:45;10.80;99.90
1055;DHT22;516;51.482;7.120;2023-03-12T19:52:33;10.90;99.90
1055;DHT22;516;51.482;7.120;2023-03-12T19:58:21;10.80;99.90
1055;DHT22;516;51.482;7.120;2023-03-12T20:04:08;10.80;99.90
1055;DHT22;516;51.482;7.120;2023-03-12T20:09:50;10.80;99.90
1055;DHT22;516;51.482;7.120;2023-03-12T20:15:38;10.80;99.90
1055;DHT22;516;51.482;7.120;2023-03-12T20:21:26;10.80;99.90
1055;DHT22;516;51.482;7.120;2023-03-12T20:27:14;10.80;99.90
1055;DHT22;516;51.482;7.120;2023-03-12T20:33:02;10.80;99.90
1055;DHT22;516;51.482;7.120;2023-03-12T20:38:52;10.60;99.90
1055;DHT22;516;51.482;7.120;2023-03-12T20:44:40;10.70;99.90
1055;DHT22;516;51.482;7.120;2023-03-12T20:50:27;10.70;99.90
1055;DHT22;516;51.482;7.120;2023-03-12T20:56:15;10.70;99.90
1055;DHT22;516;51.482;7.120;2023-03-12T21:02:05;10.70;99.90
1055;DHT22;516;51.482;7.120;2023-03-12T21:11:55;10.70;99.90
1055;DHT22;516;51.482;7.120;2023-03-12T21:17:42;10.80;99.90
1055;DHT22;516;51.482;7.120;2023-03-12T21:23:31;10.70;99.90
1055;DHT22;516;51.482;7.120;2023-03-12T21:29:18;10.70;99.90
1055;DHT22;516;51.482;7.120;2023-03-12T21:35:07;10.70;99.90
1055;DHT22;516;51.482;7.120;2023-03-12T21:40:55;10.70;99.90
1055;DHT22;516;51.482;7.120;2023-03-12T21:46:45;10.60;99.90
1055;DHT22;516;51.482;7.120;2023-03-12T21:52:32;10.70;99.90
1055;DHT22;516;51.482;7.120;2023-03-12T21:58:26;10.70;99.90
1055;DHT22;516;51.482;7.120;2023-03-12T22:04:14;10.70;99.90
1055;DHT22;516;51.482;7.120;2023-03-12T22:09:50;10.70;99.90
1055;DHT22;516;51.482;7.120;2023-03-12T22:15:37;10.60;99.90
1055;DHT22;516;51.482;7.120;2023-03-12T22:21:24;10.50;99.90
1055;DHT22;516;51.482;7.120;2023-03-12T22:27:12;10.60;99.90
1055;DHT22;516;51.482;7.120;2023-03-12T22:33:00;10.70;99.90
1055;DHT22;516;51.482;7.120;2023-03-12T22:38:48;10.70;99.90
1055;DHT22;516;51.482;7.120;2023-03-12T22:44:40;10.80;99.90
1055;DHT22;516;51.482;7.120;2023-03-12T22:50:28;10.90;99.90
1055;DHT22;516;51.482;7.120;2023-03-12T22:56:16;10.90;99.90
1055;DHT22;516;51.482;7.120;2023-03-12T23:02:04;11.00;99.90
1055;DHT22;516;51.482;7.120;2023-03-12T23:17:45;10.80;99.90
1055;DHT22;516;51.482;7.120;2023-03-12T23:23:33;10.80;99.90
1055;DHT22;516;51.482;7.120;2023-03-12T23:29:21;10.70;99.90
1055;DHT22;516;51.482;7.120;2023-03-12T23:35:09;10.80;99.90
1055;DHT22;516;51.482;7.120;2023-03-12T23:40:39;10.80;99.90
1055;DHT22;516;51.482;7.120;2023-03-12T23:46:27;10.80;99.90
1055;DHT22;516;51.482;7.120;2023-03-12T23:52:15;10.70;99.90
1055;DHT22;516;51.482;7.120;2023-03-12T23:58:03;10.80;99.90
